Taiyuan Wusu Airport
ZBYN : now visible

Airfield :











YOU CAN JOIN US ON...

 
LOGIN :

Register | Disclaimer

   EN    FR    IT 

 









Legend :    VFR   Marginal VFR   IFR   Intensive IFR   Very Intensive IFR
Visi :
Ceiling :
>= 8 km
>= 3000ft
5 to 8 km
1000 to 3000 ft
1500m to 5 km
500 to 1000 ft
800 to 1500m
200 to 500 ft
< 800m
< 200 ft
Symbols :   Thunderstorms  Fog  Heavy snow  Heavy precipitations  Wind > 20 kt






- Airport Elevation : 2575 ft
- IATA code : TYN


ZBYN - Taiyuan Wusu

CURRENT METAR :
  • 270530Z 07003MPS 4000 -RA BR NSC 03/M01 Q1024 NOSIG

EXPIRED METARs :
  • 270500Z 07004MPS 5000 BR NSC 03/M01 Q1024 NOSIG
  • 270430Z 09003MPS 5000 BR NSC 03/M01 Q1025 NOSIG
  • 270400Z 08004MPS 5000 BR NSC 03/M01 Q1025 NOSIG
  • 270330Z 09003MPS 5000 BR NSC 03/M01 Q1026 NOSIG
  • 270300Z 07002MPS 040V100 4000 BR NSC 03/M01 Q1026 NOSIG

TAF TAF ZBYN
Valid from the 27 at 06:00 until the 28 at 06:00 UTC


270301Z 2706/2806 09004MPS 3000 BR NSC TX04/2707Z TNM02/2722Z
TEMPO 2708/2712 2000 -RA BR



MET'MAP, your aeronautical weather chart ! - Copyright ORBIFLY December 2007 - Disclaimer

ORBIFLY MET'MAP TEAM :

Programming & Development : Alexandra Zaïnal
Concept & original design : Baudouin d'Aumeries
Assistance for programming : Marc-Olivier Méhu
Technical & hardware support : Manuel Goepfert

Contact : metmap@orbifly.com




SOURCES & CREDITS :

   NOAA       Earth
Advisory